Time;durP1;ratioP1;P1;durP2;ratioP2;P2;SDS_P1;SDS_P2;PMS_P1;PMS_P2;Temp;Humidity;BMP_temperature;BMP_pressure;BME280_temperature;BME280_humidity;BME280_pressure;Samples;Min_cycle;Max_cycle;Signal;HPM_P1;HPM_P2
2021/06/04 00:01:10;;;;;;;6.80;4.80;;;19.60;99.90;;;;;;5031955;28;20448;-51
2021/06/04 00:03:36;;;;;;;5.20;4.73;;;19.50;99.90;;;;;;5014058;28;20462;-51
2021/06/04 00:06:05;;;;;;;5.27;4.77;;;19.50;99.90;;;;;;5013065;28;20485;-51
2021/06/04 00:08:32;;;;;;;5.07;4.40;;;19.50;99.90;;;;;;5030886;28;20950;-51
2021/06/04 00:11:05;;;;;;;4.90;4.50;;;19.50;99.90;;;;;;5029877;28;21001;-51
2021/06/04 00:13:35;;;;;;;7.10;4.77;;;19.50;99.90;;;;;;5010124;28;20470;-50
2021/06/04 00:16:05;;;;;;;4.67;4.27;;;19.50;99.90;;;;;;5016741;28;20485;-51
2021/06/04 00:18:35;;;;;;;4.80;4.40;;;19.50;99.90;;;;;;5008582;28;20986;-51
2021/06/04 00:21:03;;;;;;;5.00;4.50;;;19.50;99.90;;;;;;5010419;28;20488;-50
2021/06/04 00:23:30;;;;;;;5.43;4.93;;;19.60;99.90;;;;;;5006675;28;22154;-51
2021/06/04 00:25:56;;;;;;;4.53;4.17;;;19.40;99.90;;;;;;5008771;28;21010;-50
2021/06/04 00:28:23;;;;;;;5.10;4.60;;;19.40;99.90;;;;;;5010729;28;20453;-51
2021/06/04 00:30:49;;;;;;;6.87;4.70;;;19.40;99.90;;;;;;5011271;28;20441;-53
2021/06/04 00:33:16;;;;;;;5.33;4.93;;;19.30;99.90;;;;;;5011559;28;20452;-51
2021/06/04 00:35:44;;;;;;;5.50;5.00;;;19.20;99.90;;;;;;5027024;28;20476;-51
2021/06/04 00:38:11;;;;;;;7.40;5.33;;;19.20;99.90;;;;;;5018848;28;21169;-51
2021/06/04 00:40:40;;;;;;;7.33;5.33;;;19.10;99.90;;;;;;5011630;28;20449;-51
2021/06/04 00:43:09;;;;;;;5.50;4.90;;;19.10;99.90;;;;;;5010453;28;20450;-51
2021/06/04 00:45:39;;;;;;;5.53;5.03;;;19.10;99.90;;;;;;5017168;28;20472;-50
2021/06/04 00:48:06;;;;;;;5.83;5.23;;;19.10;99.90;;;;;;5011730;28;20442;-50
2021/06/04 00:50:36;;;;;;;6.37;5.40;;;19.10;99.90;;;;;;5011412;28;20488;-51
2021/06/04 00:53:05;;;;;;;7.40;5.50;;;19.10;99.90;;;;;;5014332;28;20477;-50
2021/06/04 00:55:32;;;;;;;8.33;5.27;;;19.00;99.90;;;;;;5025208;28;20485;-50
2021/06/04 00:57:59;;;;;;;6.67;4.90;;;18.90;99.90;;;;;;5014578;28;20530;-52
2021/06/04 01:00:31;;;;;;;6.53;5.50;;;18.90;99.90;;;;;;5015377;28;20822;-51
2021/06/04 01:02:59;;;;;;;5.93;5.20;;;18.90;99.90;;;;;;5015088;28;20445;-51
2021/06/04 01:05:29;;;;;;;8.90;5.63;;;18.90;99.90;;;;;;5014845;28;20469;-49
2021/06/04 01:08:20;;;;;;;8.00;5.63;;;19.00;99.90;;;;;;5015347;28;20449;-51
2021/06/04 01:11:02;;;;;;;5.47;4.97;;;18.90;99.90;;;;;;5012177;28;20461;-51
2021/06/04 01:13:32;;;;;;;5.20;4.80;;;18.80;99.90;;;;;;5014478;28;20452;-51
2021/06/04 01:16:10;;;;;;;5.00;4.03;;;18.90;99.90;;;;;;5016094;28;20853;-51
2021/06/04 01:18:48;;;;;;;10.53;8.90;;;18.80;99.90;;;;;;5014799;28;20480;-51
2021/06/04 01:21:23;;;;;;;7.40;6.60;;;18.80;99.90;;;;;;5014980;28;20441;-50
2021/06/04 01:23:56;;;;;;;6.30;5.47;;;18.80;99.90;;;;;;5014514;28;21001;-50
2021/06/04 01:26:32;;;;;;;7.27;5.90;;;18.90;99.90;;;;;;4995026;28;20467;-50
2021/06/04 01:29:02;;;;;;;6.20;5.60;;;18.80;99.90;;;;;;5013206;28;20899;-50
2021/06/04 01:31:34;;;;;;;5.20;4.70;;;18.70;99.90;;;;;;5014130;28;20454;-51
2021/06/04 01:34:06;;;;;;;6.43;5.53;;;18.70;99.90;;;;;;5014848;28;20461;-50
2021/06/04 01:36:39;;;;;;;9.87;5.73;;;18.70;99.90;;;;;;5013282;28;20469;-50
2021/06/04 01:39:12;;;;;;;6.00;5.40;;;18.60;99.90;;;;;;5014527;28;20977;-51
2021/06/04 01:41:43;;;;;;;5.70;5.20;;;18.60;99.90;;;;;;5014168;28;20453;-51
2021/06/04 01:44:15;;;;;;;6.93;6.23;;;18.60;99.90;;;;;;5016837;28;20537;-51
2021/06/04 01:46:47;;;;;;;9.33;8.07;;;18.50;99.90;;;;;;5034492;28;20506;-50
2021/06/04 01:49:17;;;;;;;10.10;7.53;;;18.40;99.90;;;;;;5034167;28;20491;-50
2021/06/04 01:51:47;;;;;;;9.73;7.43;;;18.20;99.90;;;;;;5032423;28;20453;-50
2021/06/04 01:57:42;;;;;;;5.80;5.23;;;18.30;99.90;;;;;;4994837;28;20465;-51
2021/06/04 02:17:26;;;;;;;7.30;6.10;;;17.90;99.90;;;;;;5005655;28;21161;-53
2021/06/04 02:20:03;;;;;;;7.10;6.00;;;17.90;99.90;;;;;;5013958;28;20445;-52
2021/06/04 02:22:34;;;;;;;8.20;6.93;;;17.90;99.90;;;;;;5013431;28;20859;-52
2021/06/04 02:25:08;;;;;;;7.40;5.77;;;17.90;99.90;;;;;;5013850;28;20881;-52
2021/06/04 02:27:37;;;;;;;7.00;6.23;;;17.90;99.90;;;;;;5020019;28;20885;-52
2021/06/04 02:30:15;;;;;;;9.70;7.27;;;17.90;99.90;;;;;;5033397;28;20499;-52
2021/06/04 02:32:49;;;;;;;8.30;6.80;;;17.90;99.90;;;;;;5033220;28;20878;-53
2021/06/04 02:35:20;;;;;;;8.87;7.40;;;17.80;99.90;;;;;;5033294;28;20468;-50
2021/06/04 02:37:52;;;;;;;10.27;7.70;;;17.80;99.90;;;;;;5016466;28;20542;-51
2021/06/04 02:40:24;;;;;;;8.13;7.30;;;17.70;99.90;;;;;;4993860;28;20948;-50
2021/06/04 02:42:53;;;;;;;10.80;8.17;;;17.70;99.90;;;;;;4993566;28;20454;-51
2021/06/04 02:45:26;;;;;;;7.20;6.53;;;17.70;99.90;;;;;;5004737;28;20472;-50
2021/06/04 02:47:56;;;;;;;11.67;7.63;;;17.70;99.90;;;;;;5022096;28;20452;-51
2021/06/04 02:50:29;;;;;;;8.87;7.97;;;17.70;99.90;;;;;;5012832;28;20493;-51
2021/06/04 02:53:12;;;;;;;10.07;7.60;;;17.60;99.90;;;;;;5012912;28;20947;-51
2021/06/04 02:55:44;;;;;;;8.97;6.70;;;17.30;99.90;;;;;;5012687;28;20481;-51
2021/06/04 02:58:10;;;;;;;8.97;6.70;;;17.30;99.90;;;;;;5024060;28;20456;-51
2021/06/04 03:00:39;;;;;;;7.20;6.50;;;17.30;99.90;;;;;;5032770;28;20445;-50
2021/06/04 03:03:07;;;;;;;7.40;6.63;;;17.50;99.90;;;;;;5032752;28;20482;-50
2021/06/04 03:05:37;;;;;;;8.00;7.00;;;17.30;99.90;;;;;;5019584;28;20477;-51
2021/06/04 03:08:05;;;;;;;6.83;6.20;;;17.30;99.90;;;;;;5022237;28;20474;-50
2021/06/04 03:10:35;;;;;;;8.47;6.60;;;17.40;99.90;;;;;;4993361;28;20490;-51
2021/06/04 03:13:05;;;;;;;7.50;6.70;;;17.50;99.90;;;;;;4993233;28;20458;-50
2021/06/04 03:15:36;;;;;;;7.30;6.60;;;17.60;99.90;;;;;;5004526;28;20474;-51
2021/06/04 03:18:03;;;;;;;8.00;6.40;;;17.50;99.90;;;;;;5022250;28;20475;-50
2021/06/04 03:20:35;;;;;;;7.77;6.97;;;17.30;99.90;;;;;;5032527;28;20452;-51
2021/06/04 03:23:03;;;;;;;9.77;7.50;;;17.40;99.90;;;;;;5032303;28;20452;-51
2021/06/04 03:25:32;;;;;;;7.70;6.90;;;17.40;99.90;;;;;;5021435;28;20473;-51
2021/06/04 03:27:58;;;;;;;11.53;6.60;;;17.40;99.90;;;;;;5032229;28;20453;-51
2021/06/04 03:30:28;;;;;;;13.00;7.00;;;17.40;99.90;;;;;;5012268;28;20482;-50
2021/06/04 03:32:55;;;;;;;7.57;6.47;;;17.50;99.90;;;;;;5012376;28;20445;-50
2021/06/04 03:35:23;;;;;;;12.00;8.80;;;17.50;99.90;;;;;;5012200;28;20477;-51
2021/06/04 03:37:51;;;;;;;9.30;7.00;;;17.50;99.90;;;;;;5032053;28;20448;-51
2021/06/04 03:40:22;;;;;;;8.30;7.27;;;17.50;99.90;;;;;;5032159;28;20451;-51
2021/06/04 03:42:50;;;;;;;11.50;7.77;;;17.40;99.90;;;;;;5028676;28;20878;-50
2021/06/04 03:45:30;;;;;;;9.73;7.90;;;17.30;99.90;;;;;;5012262;28;20480;-50
2021/06/04 03:47:56;;;;;;;7.93;7.13;;;17.20;99.90;;;;;;4992887;28;20537;-51
2021/06/04 03:50:23;;;;;;;10.33;6.90;;;17.10;99.90;;;;;;4992598;28;20478;-50
2021/06/04 03:52:51;;;;;;;8.47;7.57;;;17.20;99.90;;;;;;4995146;28;20571;-50
2021/06/04 03:55:21;;;;;;;12.40;6.80;;;17.30;99.90;;;;;;5038753;22;20523;-57
2021/06/04 03:57:49;;;;;;;8.80;7.10;;;17.30;99.90;;;;;;5031996;28;20452;-57
2021/06/04 04:00:19;;;;;;;11.77;6.57;;;17.40;99.90;;;;;;5032246;28;20445;-57
2021/06/04 04:02:46;;;;;;;8.27;6.57;;;17.40;99.90;;;;;;5031444;28;20499;-58
2021/06/04 04:05:13;;;;;;;7.70;6.90;;;17.50;99.90;;;;;;5031092;28;20476;-57
2021/06/04 04:07:40;;;;;;;7.93;7.20;;;17.30;99.90;;;;;;5015877;28;20457;-57
2021/06/04 04:10:10;;;;;;;10.13;6.90;;;17.30;99.90;;;;;;5014387;28;20477;-57
2021/06/04 04:12:37;;;;;;;9.03;7.30;;;17.30;99.90;;;;;;5018475;28;20457;-57
2021/06/04 04:15:04;;;;;;;11.23;8.43;;;17.40;99.90;;;;;;5012410;28;20558;-57
2021/06/04 04:17:31;;;;;;;8.13;6.87;;;17.50;99.90;;;;;;5025293;28;20448;-57
2021/06/04 04:19:58;;;;;;;7.87;6.87;;;17.50;99.90;;;;;;5012302;28;20453;-57
2021/06/04 04:22:24;;;;;;;9.67;7.10;;;17.60;99.90;;;;;;5014775;28;20441;-57
2021/06/04 04:24:51;;;;;;;10.57;7.63;;;17.70;99.90;;;;;;5023355;28;20449;-57
2021/06/04 04:27:19;;;;;;;9.33;7.90;;;17.60;99.90;;;;;;5012214;28;20507;-55
2021/06/04 04:29:46;;;;;;;11.30;8.13;;;17.60;99.90;;;;;;5011933;28;20994;-56
2021/06/04 04:32:16;;;;;;;9.23;8.00;;;17.70;99.90;;;;;;5011909;28;20457;-56
2021/06/04 04:34:44;;;;;;;9.17;7.67;;;17.80;99.90;;;;;;5018086;28;20448;-56
2021/06/04 04:37:12;;;;;;;8.23;7.33;;;18.00;99.90;;;;;;5030300;28;21924;-55
2021/06/04 04:39:40;;;;;;;11.07;8.13;;;18.10;99.90;;;;;;5030245;28;20436;-55
2021/06/04 04:42:08;;;;;;;10.17;7.83;;;18.30;99.90;;;;;;5030259;28;20862;-56
2021/06/04 04:44:39;;;;;;;8.27;6.97;;;18.40;99.90;;;;;;5030181;28;20455;-56
2021/06/04 04:47:09;;;;;;;9.03;6.90;;;18.60;99.90;;;;;;5019318;28;20466;-56
2021/06/04 04:49:36;;;;;;;9.93;7.07;;;18.80;99.90;;;;;;5012401;28;21020;-55
2021/06/04 04:52:10;;;;;;;8.73;6.70;;;19.00;99.90;;;;;;5021690;28;20945;-55
2021/06/04 04:54:37;;;;;;;9.00;7.20;;;19.30;99.90;;;;;;5016458;28;20460;-56
2021/06/04 04:57:05;;;;;;;8.37;7.07;;;19.50;99.90;;;;;;5030024;28;20479;-55
2021/06/04 04:59:33;;;;;;;8.60;6.60;;;19.50;99.90;;;;;;5022696;28;20464;-56
2021/06/04 05:02:01;;;;;;;7.50;6.50;;;19.40;99.90;;;;;;5011819;28;20458;-56
2021/06/04 05:04:27;;;;;;;7.13;6.43;;;19.40;99.90;;;;;;5015212;28;20489;-56
2021/06/04 05:06:54;;;;;;;7.67;5.60;;;19.40;99.90;;;;;;5030036;28;20460;-55
2021/06/04 05:09:20;;;;;;;6.43;5.83;;;19.50;99.90;;;;;;5028703;28;20477;-55
2021/06/04 05:11:48;;;;;;;7.43;5.83;;;19.50;99.90;;;;;;5011524;28;20452;-56
2021/06/04 05:14:16;;;;;;;16.00;6.40;;;19.50;99.90;;;;;;5013595;28;20452;-56
2021/06/04 05:16:44;;;;;;;9.20;6.60;;;19.50;99.90;;;;;;5015879;28;20473;-56
2021/06/04 05:19:12;;;;;;;7.17;6.47;;;19.60;99.90;;;;;;5011024;28;20437;-56
2021/06/04 05:21:39;;;;;;;7.60;5.77;;;19.60;99.90;;;;;;5023163;28;20514;-56
2021/06/04 05:24:07;;;;;;;7.03;5.67;;;19.50;99.90;;;;;;5026796;28;20875;-57
2021/06/04 05:26:34;;;;;;;8.27;5.67;;;19.60;99.90;;;;;;5028417;28;20473;-56
2021/06/04 05:29:00;;;;;;;6.20;5.37;;;19.50;99.90;;;;;;5030113;28;20440;-56
2021/06/04 05:41:34;;;;;;;6.63;5.80;;;19.70;99.90;;;;;;5022130;28;20471;-55
2021/06/04 05:44:01;;;;;;;7.93;5.53;;;19.70;99.90;;;;;;5029286;28;20458;-56
2021/06/04 05:46:27;;;;;;;9.57;5.40;;;19.80;99.90;;;;;;5016455;28;20473;-56
2021/06/04 05:48:54;;;;;;;6.50;5.90;;;19.90;99.90;;;;;;5019561;28;20452;-56
2021/06/04 05:51:26;;;;;;;8.80;5.80;;;20.10;99.90;;;;;;5025028;28;20448;-56
2021/06/04 05:53:53;;;;;;;6.30;5.50;;;20.20;99.90;;;;;;5031351;28;20448;-56
2021/06/04 05:56:27;;;;;;;5.93;5.33;;;20.30;99.90;;;;;;5032625;28;20483;-56
2021/06/04 05:58:56;;;;;;;7.13;5.10;;;20.30;99.90;;;;;;5033247;28;20449;-56
2021/06/04 06:01:25;;;;;;;5.80;5.30;;;20.40;99.90;;;;;;5026278;28;20452;-56
2021/06/04 06:03:52;;;;;;;7.80;5.37;;;20.60;99.90;;;;;;5028696;28;20472;-56
2021/06/04 06:06:19;;;;;;;7.40;6.23;;;20.70;99.90;;;;;;5031918;28;20464;-56
2021/06/04 06:08:46;;;;;;;6.70;5.80;;;20.80;99.90;;;;;;5032750;28;20444;-56
2021/06/04 06:11:16;;;;;;;8.87;5.87;;;20.90;99.90;;;;;;5032592;28;20486;-56
2021/06/04 06:13:43;;;;;;;8.20;5.90;;;21.00;99.90;;;;;;5032640;28;20499;-55
2021/06/04 06:16:11;;;;;;;12.73;6.10;;;21.00;99.90;;;;;;5032492;28;20550;-56
2021/06/04 06:18:37;;;;;;;7.10;5.87;;;21.00;99.90;;;;;;5032555;28;20448;-56
2021/06/04 06:21:05;;;;;;;9.27;6.07;;;21.10;99.90;;;;;;5032716;28;20441;-56
2021/06/04 06:23:33;;;;;;;9.33;7.30;;;21.10;99.90;;;;;;5032412;28;20456;-56
2021/06/04 06:26:04;;;;;;;10.27;7.40;;;21.10;99.90;;;;;;5033090;28;20464;-56
2021/06/04 06:28:33;;;;;;;10.60;7.07;;;21.20;99.90;;;;;;5033049;28;20453;-57
2021/06/04 06:31:01;;;;;;;10.03;7.73;;;21.10;99.90;;;;;;5029478;28;20530;-56
2021/06/04 06:33:28;;;;;;;7.30;6.13;;;21.10;99.90;;;;;;5022057;28;20449;-56
2021/06/04 06:35:57;;;;;;;7.13;6.33;;;21.10;99.90;;;;;;5013122;28;20473;-56
2021/06/04 06:38:26;;;;;;;8.35;6.30;;;21.20;99.90;;;;;;5022868;28;20441;-56
2021/06/04 06:40:54;;;;;;;7.00;6.30;;;21.20;99.90;;;;;;5019948;28;20743;-56
2021/06/04 06:43:24;;;;;;;8.00;6.10;;;21.20;99.90;;;;;;5021474;28;20448;-57
2021/06/04 06:45:51;;;;;;;6.47;5.70;;;21.40;99.90;;;;;;5012631;28;20524;-56
2021/06/04 06:48:17;;;;;;;10.17;5.60;;;21.50;99.90;;;;;;5020520;28;20536;-57
2021/06/04 06:50:46;;;;;;;7.27;5.37;;;21.80;99.90;;;;;;5012959;28;20485;-56
2021/06/04 06:53:15;;;;;;;12.43;5.30;;;22.10;99.90;;;;;;5019167;28;21192;-56
2021/06/04 06:55:44;;;;;;;6.30;5.70;;;22.30;99.90;;;;;;5012915;28;20524;-56
2021/06/04 06:58:12;;;;;;;12.50;6.40;;;22.50;99.90;;;;;;5032052;28;20460;-56
2021/06/04 07:00:40;;;;;;;6.90;6.20;;;22.80;99.90;;;;;;5032250;28;20460;-56
2021/06/04 07:03:08;;;;;;;7.50;5.93;;;23.20;99.90;;;;;;5032444;28;20456;-56
2021/06/04 07:05:36;;;;;;;7.90;5.70;;;23.30;99.90;;;;;;5032300;28;20473;-56
2021/06/04 07:08:05;;;;;;;8.53;6.10;;;23.60;99.90;;;;;;5032224;28;20467;-56
2021/06/04 07:10:32;;;;;;;7.63;5.47;;;24.00;99.90;;;;;;5032361;28;20879;-57
2021/06/04 07:13:01;;;;;;;7.70;5.30;;;24.70;99.90;;;;;;5031671;28;20459;-56
2021/06/04 07:15:29;;;;;;;9.10;6.27;;;25.20;99.90;;;;;;5032661;28;20483;-56
2021/06/04 07:17:58;;;;;;;11.80;5.77;;;25.30;99.90;;;;;;5032187;28;20452;-56
2021/06/04 07:20:26;;;;;;;7.63;5.53;;;25.00;99.90;;;;;;5030262;28;20434;-56
2021/06/04 07:22:54;;;;;;;8.87;5.77;;;25.00;99.90;;;;;;5031875;28;20455;-57
2021/06/04 07:25:24;;;;;;;8.10;5.30;;;25.00;99.90;;;;;;5032136;28;20523;-57
2021/06/04 07:27:51;;;;;;;7.03;5.43;;;25.20;99.90;;;;;;5031236;28;20459;-56
2021/06/04 07:30:21;;;;;;;6.00;5.40;;;25.30;99.90;;;;;;5031144;28;20480;-56
2021/06/04 07:32:48;;;;;;;8.87;5.27;;;25.30;99.90;;;;;;5032138;28;20823;-56
2021/06/04 07:35:18;;;;;;;5.33;4.83;;;25.50;99.90;;;;;;5031764;28;20503;-57
2021/06/04 07:37:45;;;;;;;5.40;4.90;;;25.50;99.90;;;;;;5026261;28;20864;-56
2021/06/04 07:40:16;;;;;;;6.00;5.27;;;25.80;99.90;;;;;;5012096;28;20464;-56
2021/06/04 07:42:43;;;;;;;5.40;4.90;;;26.00;99.90;;;;;;5018611;28;20440;-56
2021/06/04 07:45:11;;;;;;;4.57;4.20;;;25.90;99.90;;;;;;5030429;28;20464;-56
2021/06/04 07:47:38;;;;;;;4.70;4.30;;;26.00;99.90;;;;;;5030197;28;20452;-57
2021/06/04 07:50:06;;;;;;;5.57;4.30;;;26.50;99.90;;;;;;5030924;28;20484;-57
2021/06/04 07:52:33;;;;;;;5.20;4.70;;;26.60;99.90;;;;;;5031670;28;20453;-57
2021/06/04 07:55:00;;;;;;;9.20;5.30;;;26.60;99.90;;;;;;5031856;28;20444;-57
2021/06/04 07:57:26;;;;;;;7.23;4.60;;;27.10;99.90;;;;;;5032034;28;20456;-57
2021/06/04 07:59:54;;;;;;;5.20;4.80;;;27.40;98.70;;;;;;5032085;28;20495;-57
2021/06/04 08:02:21;;;;;;;5.23;4.73;;;27.50;99.90;;;;;;5031529;28;20444;-57
2021/06/04 08:04:47;;;;;;;4.50;4.20;;;27.60;99.20;;;;;;5031830;28;20445;-57
2021/06/04 08:07:14;;;;;;;4.90;4.40;;;27.60;99.50;;;;;;5031908;28;20448;-57
2021/06/04 08:09:42;;;;;;;5.20;4.73;;;27.50;97.80;;;;;;5031837;28;20531;-59
2021/06/04 08:12:11;;;;;;;5.60;4.70;;;27.50;99.10;;;;;;5031956;28;20463;-57
2021/06/04 08:14:38;;;;;;;4.80;4.40;;;27.50;98.20;;;;;;5031636;28;20456;-58
2021/06/04 08:17:06;;;;;;;6.00;4.93;;;27.70;98.30;;;;;;5031701;28;20473;-57
2021/06/04 08:19:35;;;;;;;5.03;4.53;;;28.10;99.90;;;;;;5031872;28;20440;-57
2021/06/04 08:22:04;;;;;;;8.20;4.53;;;27.90;98.00;;;;;;5031900;28;20453;-59
2021/06/04 08:24:33;;;;;;;4.97;4.67;;;28.30;99.40;;;;;;5031336;28;20853;-57
2021/06/04 08:27:03;;;;;;;5.00;4.60;;;28.30;97.00;;;;;;5031011;28;20518;-58
2021/06/04 08:29:31;;;;;;;5.70;5.20;;;28.50;96.60;;;;;;5031684;28;20510;-57
2021/06/04 08:31:58;;;;;;;6.97;4.93;;;28.70;95.70;;;;;;5031922;28;20614;-58
2021/06/04 08:34:27;;;;;;;7.40;5.07;;;29.20;95.60;;;;;;5031392;28;20977;-58
2021/06/04 08:36:54;;;;;;;6.20;5.00;;;30.10;94.30;;;;;;5031565;28;20476;-58
2021/06/04 08:39:29;;;;;;;5.10;4.13;;;30.70;93.00;;;;;;5031687;28;20452;-59
2021/06/04 08:42:02;;;;;;;5.10;4.20;;;31.00;93.00;;;;;;5031385;28;20443;-58
2021/06/04 08:44:37;;;;;;;7.63;4.87;;;31.10;91.80;;;;;;5031218;28;20491;-59
2021/06/04 08:47:13;;;;;;;4.93;4.53;;;31.40;93.00;;;;;;5030497;28;20483;-58
2021/06/04 08:50:02;;;;;;;5.37;4.50;;;32.10;89.70;;;;;;5031136;28;20508;-58
2021/06/04 08:52:33;;;;;;;5.37;4.27;;;31.70;89.20;;;;;;5027938;28;20468;-58
2021/06/04 08:55:05;;;;;;;6.23;5.30;;;32.40;88.70;;;;;;5030962;28;20463;-58
2021/06/04 08:57:49;;;;;;;6.57;5.97;;;32.50;87.30;;;;;;5031414;28;20449;-58
2021/06/04 09:00:19;;;;;;;6.83;5.80;;;32.60;88.60;;;;;;5031402;28;20944;-58
2021/06/04 09:02:50;;;;;;;6.40;5.17;;;32.50;87.90;;;;;;5030331;28;20479;-58
2021/06/04 09:05:23;;;;;;;7.77;5.43;;;32.10;90.70;;;;;;5031057;28;21025;-58
2021/06/04 09:07:52;;;;;;;5.70;5.20;;;30.70;92.40;;;;;;5031002;28;20452;-58
2021/06/04 09:10:28;;;;;;;7.20;6.13;;;30.50;93.00;;;;;;5031245;28;21028;-58
2021/06/04 09:13:01;;;;;;;6.10;5.50;;;30.60;92.70;;;;;;5031706;28;20980;-59
2021/06/04 09:15:32;;;;;;;5.63;5.13;;;29.70;95.40;;;;;;5035103;28;20508;-59
2021/06/04 09:18:04;;;;;;;5.13;4.70;;;30.10;94.50;;;;;;5035001;28;20509;-58
2021/06/04 09:20:43;;;;;;;7.80;5.33;;;30.50;92.90;;;;;;5035202;28;20449;-58
2021/06/04 09:23:12;;;;;;;5.87;5.27;;;30.20;94.20;;;;;;5034188;28;20483;-58
2021/06/04 09:25:39;;;;;;;6.03;5.53;;;29.10;97.10;;;;;;5034772;28;20878;-58
2021/06/04 09:28:36;;;;;;;6.93;6.30;;;29.20;96.30;;;;;;5034675;28;20519;-58
2021/06/04 09:31:25;;;;;;;8.20;7.40;;;27.70;97.60;;;;;;4954380;29;20488;-57
2021/06/04 09:33:53;;;;;;;7.13;6.40;;;27.20;98.50;;;;;;5027955;28;20464;-58
2021/06/04 09:36:26;;;;;;;7.93;7.23;;;27.50;99.90;;;;;;5034635;28;20837;-58
2021/06/04 09:38:57;;;;;;;7.43;6.60;;;27.20;99.20;;;;;;5034585;28;20460;-57
2021/06/04 09:41:39;;;;;;;7.20;6.20;;;27.50;98.80;;;;;;5034378;28;20792;-58
2021/06/04 09:44:21;;;;;;;7.90;6.20;;;27.50;98.50;;;;;;5029626;28;20972;-58
2021/06/04 09:46:53;;;;;;;8.60;7.70;;;28.30;98.90;;;;;;5034195;28;20473;-57
2021/06/04 09:49:44;;;;;;;8.90;8.10;;;28.00;98.00;;;;;;5034768;28;20479;-59
2021/06/04 09:52:34;;;;;;;7.20;6.30;;;27.00;99.70;;;;;;5033981;28;20456;-57
2021/06/04 09:55:13;;;;;;;13.50;7.30;;;27.50;99.90;;;;;;5017598;28;20469;-58
2021/06/04 09:58:16;;;;;;;11.17;7.10;;;27.40;99.90;;;;;;5045727;22;20499;-51
2021/06/04 10:00:45;;;;;;;8.10;7.03;;;27.90;98.80;;;;;;5025949;28;20448;-51
2021/06/04 10:03:31;;;;;;;11.67;8.83;;;27.50;99.90;;;;;;5014444;28;20446;-51
2021/06/04 10:06:25;;;;;;;9.67;8.67;;;26.80;99.90;;;;;;5014386;28;20834;-51
2021/06/04 10:08:56;;;;;;;9.53;8.73;;;25.60;99.90;;;;;;5014590;28;20466;-51
2021/06/04 10:11:25;;;;;;;9.57;8.57;;;25.60;99.90;;;;;;5014189;28;20972;-51
2021/06/04 10:13:58;;;;;;;9.33;8.30;;;25.90;99.90;;;;;;5021007;28;20445;-51
2021/06/04 10:16:58;;;;;;;9.00;8.20;;;26.80;99.90;;;;;;5032085;28;20472;-52
2021/06/04 10:19:31;;;;;;;8.73;7.77;;;27.10;99.90;;;;;;5032731;28;20495;-51
2021/06/04 10:22:18;;;;;;;8.73;7.93;;;27.00;99.90;;;;;;5027864;28;20497;-51
2021/06/04 10:24:50;;;;;;;8.77;7.97;;;27.00;99.90;;;;;;5014512;28;20449;-50
2021/06/04 10:27:19;;;;;;;9.70;8.80;;;26.70;99.90;;;;;;5013190;28;20469;-50
2021/06/04 10:29:59;;;;;;;9.52;8.00;;;25.60;99.90;;;;;;5009729;28;20463;-51
2021/06/04 10:32:31;;;;;;;9.83;8.90;;;25.60;99.90;;;;;;5013217;28;20210;-50
2021/06/04 10:35:10;;;;;;;9.97;7.97;;;25.30;99.90;;;;;;5012855;28;20454;-49
2021/06/04 10:37:40;;;;;;;9.73;8.17;;;25.30;99.90;;;;;;5013143;28;20523;-50
2021/06/04 10:40:15;;;;;;;9.13;7.97;;;26.40;99.90;;;;;;5013365;28;20442;-51
2021/06/04 10:42:56;;;;;;;10.60;8.60;;;27.40;99.90;;;;;;5016526;28;20452;-51
2021/06/04 10:45:27;;;;;;;9.57;7.33;;;27.10;99.90;;;;;;5012700;28;20441;-51
2021/06/04 10:48:14;;;;;;;9.03;7.50;;;27.00;99.90;;;;;;5012699;28;20481;-50
2021/06/04 10:50:45;;;;;;;11.93;7.57;;;27.30;99.90;;;;;;5012886;28;20482;-51
2021/06/04 10:53:19;;;;;;;8.57;7.67;;;27.80;99.90;;;;;;5012059;28;20453;-51
2021/06/04 10:55:58;;;;;;;7.73;7.03;;;27.60;99.90;;;;;;5012448;28;20979;-50
2021/06/04 10:58:32;;;;;;;7.50;6.80;;;27.50;99.90;;;;;;5012502;28;21226;-50
2021/06/04 11:01:01;;;;;;;7.10;6.40;;;27.50;99.90;;;;;;5012795;28;20499;-51
2021/06/04 11:03:35;;;;;;;10.97;5.97;;;27.30;99.90;;;;;;5018128;28;20453;-51
2021/06/04 11:06:11;;;;;;;5.97;5.37;;;27.40;99.90;;;;;;5025617;28;20545;-51
2021/06/04 11:08:53;;;;;;;5.63;4.87;;;26.80;99.90;;;;;;5011590;28;20454;-51
2021/06/04 11:11:40;;;;;;;4.73;4.30;;;25.90;99.90;;;;;;5012028;28;20484;-51
2021/06/04 11:14:24;;;;;;;9.63;4.50;;;25.80;99.90;;;;;;5013225;28;20476;-50
2021/06/04 11:17:01;;;;;;;5.07;4.57;;;25.10;99.90;;;;;;5012204;28;21018;-51
2021/06/04 11:19:35;;;;;;;7.03;4.60;;;24.80;99.90;;;;;;5012448;28;20456;-51
2021/06/04 11:22:06;;;;;;;7.20;4.10;;;24.80;99.90;;;;;;5023888;28;20449;-53
2021/06/04 11:24:40;;;;;;;7.30;4.53;;;25.00;99.90;;;;;;5008899;28;20448;-51
2021/06/04 11:27:13;;;;;;;6.20;4.00;;;25.00;99.90;;;;;;5011317;28;20496;-50
2021/06/04 11:29:41;;;;;;;3.87;3.57;;;25.20;99.90;;;;;;5008245;28;20504;-50
2021/06/04 11:32:13;;;;;;;4.80;4.20;;;25.10;99.90;;;;;;5012593;28;20455;-50
2021/06/04 11:34:48;;;;;;;4.37;3.97;;;25.10;99.90;;;;;;5013610;28;20457;-51
2021/06/04 11:37:22;;;;;;;4.23;3.83;;;25.10;99.90;;;;;;5013410;28;20472;-50
2021/06/04 11:39:51;;;;;;;6.63;4.30;;;24.80;99.90;;;;;;5011784;28;20445;-50
2021/06/04 11:42:26;;;;;;;3.87;3.57;;;25.10;99.90;;;;;;5011427;28;20453;-51
2021/06/04 11:44:55;;;;;;;5.23;3.50;;;25.10;99.90;;;;;;5011807;28;20536;-51
2021/06/04 11:47:37;;;;;;;6.30;3.30;;;25.10;99.90;;;;;;5011732;28;20461;-51
2021/06/04 11:50:23;;;;;;;3.47;3.17;;;25.30;99.90;;;;;;5012102;28;20481;-51
2021/06/04 11:52:52;;;;;;;3.57;3.30;;;25.30;99.90;;;;;;5009676;28;20806;-51
2021/06/04 11:55:35;;;;;;;3.30;2.80;;;25.30;99.90;;;;;;5012676;28;20453;-50
2021/06/04 11:58:06;;;;;;;3.47;3.17;;;25.30;99.90;;;;;;5008311;28;20469;-50
2021/06/04 12:00:43;;;;;;;4.10;3.30;;;25.40;99.90;;;;;;5011704;28;20532;-50
2021/06/04 12:03:28;;;;;;;3.43;3.17;;;25.60;99.90;;;;;;5011127;28;20535;-50
2021/06/04 12:05:56;;;;;;;4.83;2.80;;;25.60;99.90;;;;;;5011687;28;20515;-50
2021/06/04 12:08:45;;;;;;;4.43;3.40;;;25.80;99.90;;;;;;5012288;28;20453;-50
2021/06/04 12:11:32;;;;;;;3.97;3.67;;;26.00;99.90;;;;;;5011960;28;20477;-50
2021/06/04 12:14:27;;;;;;;3.67;3.37;;;26.10;99.90;;;;;;5000890;28;20554;-50
2021/06/04 12:17:26;;;;;;;3.67;3.27;;;25.60;99.90;;;;;;4996316;28;20521;-51
2021/06/04 12:20:15;;;;;;;3.87;3.53;;;25.70;99.90;;;;;;5031710;28;20833;-51
2021/06/04 12:22:47;;;;;;;5.40;3.90;;;24.80;99.90;;;;;;5008693;28;20460;-51
2021/06/04 12:25:33;;;;;;;3.90;3.43;;;25.30;99.90;;;;;;5031811;28;20868;-51
2021/06/04 12:28:08;;;;;;;3.87;3.53;;;25.60;99.90;;;;;;5031303;28;20814;-51
2021/06/04 12:31:04;;;;;;;4.60;3.60;;;26.10;99.90;;;;;;5023410;28;20480;-51
2021/06/04 12:33:45;;;;;;;5.40;4.00;;;26.00;99.90;;;;;;5012633;28;20461;-50
2021/06/04 12:36:54;;;;;;;3.83;3.53;;;25.90;99.90;;;;;;5011968;28;20998;-50
2021/06/04 12:39:51;;;;;;;10.40;4.00;;;26.00;99.90;;;;;;5012072;28;20450;-50
2021/06/04 12:42:39;;;;;;;4.93;4.30;;;26.00;99.90;;;;;;5014747;28;20454;-51
2021/06/04 12:45:33;;;;;;;6.43;3.90;;;25.40;99.90;;;;;;5011927;28;20449;-51
2021/06/04 12:48:09;;;;;;;4.43;4.00;;;25.40;99.90;;;;;;5020166;28;20824;-51
2021/06/04 12:50:39;;;;;;;4.93;3.97;;;25.70;99.90;;;;;;5016395;28;20523;-49
2021/06/04 12:53:13;;;;;;;4.40;3.40;;;25.90;99.90;;;;;;5026769;28;20457;-51
2021/06/04 12:55:42;;;;;;;6.00;3.70;;;26.00;99.90;;;;;;5015554;28;20798;-50
2021/06/04 12:58:18;;;;;;;3.43;3.13;;;26.20;99.90;;;;;;5015478;28;20452;-50
2021/06/04 13:00:45;;;;;;;6.20;4.00;;;26.50;99.90;;;;;;5015184;28;20453;-49
2021/06/04 13:03:20;;;;;;;3.80;3.50;;;26.10;99.90;;;;;;5015235;28;20456;-49
2021/06/04 13:05:50;;;;;;;3.37;3.17;;;26.20;99.90;;;;;;5015485;28;20453;-49
2021/06/04 13:08:21;;;;;;;3.20;2.97;;;26.00;99.90;;;;;;5015566;28;20461;-49
2021/06/04 13:10:50;;;;;;;3.43;3.10;;;26.10;99.90;;;;;;5015138;28;20481;-49
2021/06/04 13:13:22;;;;;;;4.00;3.33;;;26.10;99.90;;;;;;5015334;28;20453;-50
2021/06/04 13:15:49;;;;;;;4.43;3.60;;;26.10;99.90;;;;;;5015389;28;20453;-50
2021/06/04 13:18:20;;;;;;;5.73;3.97;;;26.20;99.90;;;;;;5015254;28;20452;-50
2021/06/04 13:20:50;;;;;;;3.70;3.33;;;26.20;99.90;;;;;;5015016;28;20453;-51
2021/06/04 13:23:22;;;;;;;3.80;3.50;;;26.30;99.90;;;;;;5015177;28;20452;-51
2021/06/04 13:26:05;;;;;;;6.03;3.57;;;26.50;99.90;;;;;;5014983;28;20499;-51
2021/06/04 13:28:39;;;;;;;4.07;3.77;;;26.40;99.90;;;;;;5015084;28;20456;-51
2021/06/04 13:31:08;;;;;;;4.47;3.30;;;26.20;99.90;;;;;;5021937;28;20477;-50
2021/06/04 13:33:38;;;;;;;3.67;3.37;;;26.20;99.90;;;;;;5026261;28;20453;-51
2021/06/04 13:36:07;;;;;;;5.73;4.07;;;25.90;99.90;;;;;;5014908;28;20468;-51
2021/06/04 13:38:36;;;;;;;3.53;3.23;;;26.10;99.90;;;;;;5019645;28;20507;-50
2021/06/04 13:41:05;;;;;;;4.77;3.07;;;26.30;99.90;;;;;;5015925;28;20449;-51